Impacts TAF Board
For situational awareness. Not to be used for flight planning purposes.
IDs:

KJCT - Junction/Kimble Cnty, TX, US

Issued at 1126 UTC 14 Dec 2019
Updated at 1334 UTC 14 Dec 2019
Potential Impact None Slight Moderate High
Time<<15/02Z 15/03Z 15/04Z 15/05Z 15/06Z 15/07Z 15/08Z 15/09Z 15/10Z 15/11Z 15/12Z 15/13Z 15/14Z>>
Type PRVL PRVL PRVL PRVL PRVL PRVL PRVL PRVL PRVL PRVL
VIS >6 >6 >6 >6 >6 >6 >6 >6 >6 >6
CIG -- -- -- -- -- -- -- -- -- --
Cover SKC SKC SKC SKC SKC SKC SKC SKC SKC SKC
FltCat VFR VFR VFR VFR VFR VFR VFR VFR VFR VFR
WX -- -- -- -- -- -- -- -- -- --
WDir 210 210 210 210 210 210 210 210 210 210
WSpd 10 10 10 10 10 10 10 10 10 10
WGst -- -- -- -- -- -- -- -- -- --
Raw TAF
KJCT 141126Z 1412/1512 VRB05KT P6SM SCT250
  FM141800 21010KT P6SM SKC


METAR Board
Radar Display
Forecast Discussion
For situational awareness. Not to be used for flight planning purposes.